Terminal Aerodrome Forecast
Issued by NWS

Current Version | Previous Version | Graphics & Text | Print | Product List | Glossary On
Versions: 1 2 3 4 5 6 7 8 9 10 11 12 13 14 15 16 17 18 19 20 21 22
000
FTUS41 KRLX 240200 AAA
TAFCKB
TAF AMD
KCKB 240207Z 2402/2424 29009G15KT P6SM BKN050
     FM240300 29007KT P6SM BKN040
     FM240500 29005KT P6SM SCT040
     FM240800 VRB02KT P6SM SCT250
     FM241500 29008KT P6SM FEW040=

USA.gov is the U.S. government's official web portal to all federal, state and local government web resources and services.